sensor_id;sensor_type;location;lat;lon;timestamp;temperature;humidity
6627;DHT22;3349;49.830;8.748;2022-07-18T00:00:13;15.90;50.40
6627;DHT22;3349;49.830;8.748;2022-07-18T00:02:40;15.90;50.10
6627;DHT22;3349;49.830;8.748;2022-07-18T00:05:07;15.80;50.20
6627;DHT22;3349;49.830;8.748;2022-07-18T00:07:34;15.80;50.50
6627;DHT22;3349;49.830;8.748;2022-07-18T00:10:01;15.80;51.40
6627;DHT22;3349;49.830;8.748;2022-07-18T00:12:28;15.80;51.30
6627;DHT22;3349;49.830;8.748;2022-07-18T00:14:54;15.80;51.10
6627;DHT22;3349;49.830;8.748;2022-07-18T00:17:22;15.70;50.70
6627;DHT22;3349;49.830;8.748;2022-07-18T00:19:49;15.60;51.00
6627;DHT22;3349;49.830;8.748;2022-07-18T00:22:16;15.60;51.70
6627;DHT22;3349;49.830;8.748;2022-07-18T00:24:43;15.60;52.70
6627;DHT22;3349;49.830;8.748;2022-07-18T00:27:09;15.50;52.30
6627;DHT22;3349;49.830;8.748;2022-07-18T00:29:36;15.50;52.40
6627;DHT22;3349;49.830;8.748;2022-07-18T00:32:05;15.50;52.50
6627;DHT22;3349;49.830;8.748;2022-07-18T00:34:34;15.40;53.00
6627;DHT22;3349;49.830;8.748;2022-07-18T00:37:01;15.40;52.90
6627;DHT22;3349;49.830;8.748;2022-07-18T00:39:28;15.40;53.00
6627;DHT22;3349;49.830;8.748;2022-07-18T00:41:55;15.30;52.90
6627;DHT22;3349;49.830;8.748;2022-07-18T00:44:23;15.30;53.50
6627;DHT22;3349;49.830;8.748;2022-07-18T00:46:50;15.30;53.20
6627;DHT22;3349;49.830;8.748;2022-07-18T00:49:18;15.30;53.40
6627;DHT22;3349;49.830;8.748;2022-07-18T00:51:46;15.20;53.50
6627;DHT22;3349;49.830;8.748;2022-07-18T00:54:13;15.20;53.90
6627;DHT22;3349;49.830;8.748;2022-07-18T00:56:40;15.20;54.20
6627;DHT22;3349;49.830;8.748;2022-07-18T00:59:07;15.20;54.50
6627;DHT22;3349;49.830;8.748;2022-07-18T01:01:34;15.10;54.70
6627;DHT22;3349;49.830;8.748;2022-07-18T01:04:09;15.10;54.90
6627;DHT22;3349;49.830;8.748;2022-07-18T01:06:36;15.10;54.50
6627;DHT22;3349;49.830;8.748;2022-07-18T01:09:05;15.00;54.20
6627;DHT22;3349;49.830;8.748;2022-07-18T01:11:32;15.00;54.80
6627;DHT22;3349;49.830;8.748;2022-07-18T01:14:00;14.90;54.40
6627;DHT22;3349;49.830;8.748;2022-07-18T01:16:27;14.90;54.80
6627;DHT22;3349;49.830;8.748;2022-07-18T01:18:54;14.80;55.40
6627;DHT22;3349;49.830;8.748;2022-07-18T01:21:22;14.80;55.50
6627;DHT22;3349;49.830;8.748;2022-07-18T01:23:49;14.90;55.70
6627;DHT22;3349;49.830;8.748;2022-07-18T01:26:17;14.90;55.90
6627;DHT22;3349;49.830;8.748;2022-07-18T01:28:44;14.80;55.30
6627;DHT22;3349;49.830;8.748;2022-07-18T01:31:11;14.80;54.60
6627;DHT22;3349;49.830;8.748;2022-07-18T01:33:38;14.80;54.10
6627;DHT22;3349;49.830;8.748;2022-07-18T01:36:06;14.80;54.60
6627;DHT22;3349;49.830;8.748;2022-07-18T01:38:35;14.70;54.50
6627;DHT22;3349;49.830;8.748;2022-07-18T01:41:02;14.70;54.60
6627;DHT22;3349;49.830;8.748;2022-07-18T01:43:29;14.70;54.90
6627;DHT22;3349;49.830;8.748;2022-07-18T01:45:56;14.70;55.80
6627;DHT22;3349;49.830;8.748;2022-07-18T01:48:23;14.60;55.70
6627;DHT22;3349;49.830;8.748;2022-07-18T01:50:50;14.60;56.50
6627;DHT22;3349;49.830;8.748;2022-07-18T01:53:17;14.50;56.30
6627;DHT22;3349;49.830;8.748;2022-07-18T01:55:45;14.50;57.00
6627;DHT22;3349;49.830;8.748;2022-07-18T01:58:12;14.50;57.00
6627;DHT22;3349;49.830;8.748;2022-07-18T02:00:39;14.40;57.30
6627;DHT22;3349;49.830;8.748;2022-07-18T02:03:06;14.40;57.80
6627;DHT22;3349;49.830;8.748;2022-07-18T02:05:33;14.40;58.20
6627;DHT22;3349;49.830;8.748;2022-07-18T02:07:59;14.40;58.50
6627;DHT22;3349;49.830;8.748;2022-07-18T02:10:26;14.40;58.70
6627;DHT22;3349;49.830;8.748;2022-07-18T02:12:54;14.30;58.60
6627;DHT22;3349;49.830;8.748;2022-07-18T02:15:21;14.30;58.60
6627;DHT22;3349;49.830;8.748;2022-07-18T02:17:48;14.30;58.70
6627;DHT22;3349;49.830;8.748;2022-07-18T02:20:15;14.30;57.90
6627;DHT22;3349;49.830;8.748;2022-07-18T02:22:42;14.30;58.00
6627;DHT22;3349;49.830;8.748;2022-07-18T02:25:09;14.20;58.00
6627;DHT22;3349;49.830;8.748;2022-07-18T02:27:37;14.20;58.00
6627;DHT22;3349;49.830;8.748;2022-07-18T02:30:07;14.20;58.30
6627;DHT22;3349;49.830;8.748;2022-07-18T02:32:34;14.10;58.30
6627;DHT22;3349;49.830;8.748;2022-07-18T02:35:03;14.10;58.30
6627;DHT22;3349;49.830;8.748;2022-07-18T02:37:30;14.10;58.20
6627;DHT22;3349;49.830;8.748;2022-07-18T02:39:57;14.10;58.80
6627;DHT22;3349;49.830;8.748;2022-07-18T02:42:23;14.10;59.10
6627;DHT22;3349;49.830;8.748;2022-07-18T02:44:50;14.10;59.80
6627;DHT22;3349;49.830;8.748;2022-07-18T02:47:18;14.10;59.90
6627;DHT22;3349;49.830;8.748;2022-07-18T02:49:45;14.10;59.90
6627;DHT22;3349;49.830;8.748;2022-07-18T02:52:11;14.10;59.90
6627;DHT22;3349;49.830;8.748;2022-07-18T02:54:38;14.00;59.80
6627;DHT22;3349;49.830;8.748;2022-07-18T02:57:06;14.00;59.80
6627;DHT22;3349;49.830;8.748;2022-07-18T02:59:33;13.90;59.70
6627;DHT22;3349;49.830;8.748;2022-07-18T03:02:00;13.90;59.70
6627;DHT22;3349;49.830;8.748;2022-07-18T03:04:28;13.90;60.00
6627;DHT22;3349;49.830;8.748;2022-07-18T03:06:55;13.90;60.90
6627;DHT22;3349;49.830;8.748;2022-07-18T03:09:22;13.90;60.40
6627;DHT22;3349;49.830;8.748;2022-07-18T03:11:52;13.90;60.50
6627;DHT22;3349;49.830;8.748;2022-07-18T03:14:19;13.80;60.60
6627;DHT22;3349;49.830;8.748;2022-07-18T03:16:46;13.80;60.50
6627;DHT22;3349;49.830;8.748;2022-07-18T03:19:13;13.80;61.10
6627;DHT22;3349;49.830;8.748;2022-07-18T03:21:41;13.80;60.90
6627;DHT22;3349;49.830;8.748;2022-07-18T03:24:08;13.80;60.90
6627;DHT22;3349;49.830;8.748;2022-07-18T03:26:36;13.70;61.10
6627;DHT22;3349;49.830;8.748;2022-07-18T03:29:03;13.70;61.60
6627;DHT22;3349;49.830;8.748;2022-07-18T03:31:30;13.70;61.10
6627;DHT22;3349;49.830;8.748;2022-07-18T03:33:57;13.60;60.40
6627;DHT22;3349;49.830;8.748;2022-07-18T03:36:24;13.60;60.60
6627;DHT22;3349;49.830;8.748;2022-07-18T03:38:52;13.60;59.90
6627;DHT22;3349;49.830;8.748;2022-07-18T03:41:18;13.60;60.80
6627;DHT22;3349;49.830;8.748;2022-07-18T03:43:45;13.60;61.80
6627;DHT22;3349;49.830;8.748;2022-07-18T03:46:12;13.60;62.30
6627;DHT22;3349;49.830;8.748;2022-07-18T03:48:38;13.60;62.50
6627;DHT22;3349;49.830;8.748;2022-07-18T03:51:06;13.60;62.30
6627;DHT22;3349;49.830;8.748;2022-07-18T03:53:33;13.70;62.60
6627;DHT22;3349;49.830;8.748;2022-07-18T03:56:01;13.60;62.60
6627;DHT22;3349;49.830;8.748;2022-07-18T03:58:28;13.60;62.70
6627;DHT22;3349;49.830;8.748;2022-07-18T04:00:55;13.60;62.80
6627;DHT22;3349;49.830;8.748;2022-07-18T04:03:23;13.60;62.90
6627;DHT22;3349;49.830;8.748;2022-07-18T04:05:50;13.60;62.80
6627;DHT22;3349;49.830;8.748;2022-07-18T04:08:17;13.70;62.90
6627;DHT22;3349;49.830;8.748;2022-07-18T04:10:44;13.70;62.90
6627;DHT22;3349;49.830;8.748;2022-07-18T04:13:12;13.70;62.70
6627;DHT22;3349;49.830;8.748;2022-07-18T04:15:39;13.70;62.90
6627;DHT22;3349;49.830;8.748;2022-07-18T04:18:07;13.80;62.90
6627;DHT22;3349;49.830;8.748;2022-07-18T04:20:36;13.80;62.90
6627;DHT22;3349;49.830;8.748;2022-07-18T04:23:06;13.80;62.50
6627;DHT22;3349;49.830;8.748;2022-07-18T04:25:35;13.80;62.10
6627;DHT22;3349;49.830;8.748;2022-07-18T04:28:03;13.80;61.80
6627;DHT22;3349;49.830;8.748;2022-07-18T04:30:33;13.80;61.70
6627;DHT22;3349;49.830;8.748;2022-07-18T04:33:02;13.90;61.70
6627;DHT22;3349;49.830;8.748;2022-07-18T04:35:29;13.90;62.70
6627;DHT22;3349;49.830;8.748;2022-07-18T04:37:57;14.00;61.30
6627;DHT22;3349;49.830;8.748;2022-07-18T04:40:24;14.00;60.50
6627;DHT22;3349;49.830;8.748;2022-07-18T04:42:50;14.10;60.90
6627;DHT22;3349;49.830;8.748;2022-07-18T04:45:17;14.10;59.90
6627;DHT22;3349;49.830;8.748;2022-07-18T04:47:49;14.20;60.00
6627;DHT22;3349;49.830;8.748;2022-07-18T04:50:16;14.20;60.00
6627;DHT22;3349;49.830;8.748;2022-07-18T04:52:45;14.30;60.40
6627;DHT22;3349;49.830;8.748;2022-07-18T04:55:13;14.30;61.20
6627;DHT22;3349;49.830;8.748;2022-07-18T04:57:40;14.40;61.80
6627;DHT22;3349;49.830;8.748;2022-07-18T05:00:10;14.50;62.40
6627;DHT22;3349;49.830;8.748;2022-07-18T05:02:39;14.50;62.30
6627;DHT22;3349;49.830;8.748;2022-07-18T05:05:08;14.60;62.20
6627;DHT22;3349;49.830;8.748;2022-07-18T05:07:36;14.60;62.10
6627;DHT22;3349;49.830;8.748;2022-07-18T05:10:04;14.70;62.20
6627;DHT22;3349;49.830;8.748;2022-07-18T05:12:33;14.70;62.60
6627;DHT22;3349;49.830;8.748;2022-07-18T05:15:00;14.80;62.80
6627;DHT22;3349;49.830;8.748;2022-07-18T05:17:26;14.80;63.30
6627;DHT22;3349;49.830;8.748;2022-07-18T05:19:53;14.90;63.10
6627;DHT22;3349;49.830;8.748;2022-07-18T05:22:21;14.90;62.70
6627;DHT22;3349;49.830;8.748;2022-07-18T05:24:50;15.00;62.90
6627;DHT22;3349;49.830;8.748;2022-07-18T05:27:17;15.10;63.70
6627;DHT22;3349;49.830;8.748;2022-07-18T05:29:43;15.20;63.80
6627;DHT22;3349;49.830;8.748;2022-07-18T05:32:10;15.30;63.70
6627;DHT22;3349;49.830;8.748;2022-07-18T05:34:37;15.30;63.80
6627;DHT22;3349;49.830;8.748;2022-07-18T05:37:04;15.40;64.10
6627;DHT22;3349;49.830;8.748;2022-07-18T05:39:32;15.40;64.90
6627;DHT22;3349;49.830;8.748;2022-07-18T05:42:00;15.50;65.60
6627;DHT22;3349;49.830;8.748;2022-07-18T05:44:27;15.60;65.70
6627;DHT22;3349;49.830;8.748;2022-07-18T05:46:54;15.70;67.00
6627;DHT22;3349;49.830;8.748;2022-07-18T05:49:20;15.80;67.30
6627;DHT22;3349;49.830;8.748;2022-07-18T05:51:48;16.00;67.70
6627;DHT22;3349;49.830;8.748;2022-07-18T05:54:14;16.10;67.90
6627;DHT22;3349;49.830;8.748;2022-07-18T05:56:46;16.20;66.70
6627;DHT22;3349;49.830;8.748;2022-07-18T05:59:13;16.30;65.90
6627;DHT22;3349;49.830;8.748;2022-07-18T06:01:40;16.50;66.30
6627;DHT22;3349;49.830;8.748;2022-07-18T06:04:07;16.60;66.30
6627;DHT22;3349;49.830;8.748;2022-07-18T06:06:34;16.70;66.90
6627;DHT22;3349;49.830;8.748;2022-07-18T06:09:01;16.80;65.50
6627;DHT22;3349;49.830;8.748;2022-07-18T06:11:28;16.90;64.00
6627;DHT22;3349;49.830;8.748;2022-07-18T06:13:56;17.00;61.30
6627;DHT22;3349;49.830;8.748;2022-07-18T06:16:23;17.10;58.40
6627;DHT22;3349;49.830;8.748;2022-07-18T06:18:50;17.30;57.50
6627;DHT22;3349;49.830;8.748;2022-07-18T06:21:17;17.40;56.40
6627;DHT22;3349;49.830;8.748;2022-07-18T06:23:44;17.60;54.80
6627;DHT22;3349;49.830;8.748;2022-07-18T06:26:11;17.70;53.00
6627;DHT22;3349;49.830;8.748;2022-07-18T06:28:38;18.00;46.90
6627;DHT22;3349;49.830;8.748;2022-07-18T06:31:06;18.20;45.90
6627;DHT22;3349;49.830;8.748;2022-07-18T06:33:33;18.40;47.90
6627;DHT22;3349;49.830;8.748;2022-07-18T06:36:00;18.60;47.50
6627;DHT22;3349;49.830;8.748;2022-07-18T06:38:26;18.70;47.50
6627;DHT22;3349;49.830;8.748;2022-07-18T06:40:53;18.80;47.60
6627;DHT22;3349;49.830;8.748;2022-07-18T06:43:20;19.00;46.50
6627;DHT22;3349;49.830;8.748;2022-07-18T06:45:47;19.20;46.00
6627;DHT22;3349;49.830;8.748;2022-07-18T06:48:17;19.30;44.70
6627;DHT22;3349;49.830;8.748;2022-07-18T06:50:44;19.50;43.00
6627;DHT22;3349;49.830;8.748;2022-07-18T06:53:11;19.70;42.20
6627;DHT22;3349;49.830;8.748;2022-07-18T06:55:38;20.10;41.10
6627;DHT22;3349;49.830;8.748;2022-07-18T06:58:05;20.30;40.40
6627;DHT22;3349;49.830;8.748;2022-07-18T07:00:31;20.50;39.30
6627;DHT22;3349;49.830;8.748;2022-07-18T07:02:58;20.60;39.90
6627;DHT22;3349;49.830;8.748;2022-07-18T07:05:26;20.70;39.30
6627;DHT22;3349;49.830;8.748;2022-07-18T07:07:53;21.00;39.30
6627;DHT22;3349;49.830;8.748;2022-07-18T07:10:20;21.00;39.50
6627;DHT22;3349;49.830;8.748;2022-07-18T07:12:48;21.20;37.40
6627;DHT22;3349;49.830;8.748;2022-07-18T07:15:17;21.30;37.80
6627;DHT22;3349;49.830;8.748;2022-07-18T07:17:44;21.40;38.10
6627;DHT22;3349;49.830;8.748;2022-07-18T07:20:12;21.40;38.60
6627;DHT22;3349;49.830;8.748;2022-07-18T07:22:44;21.50;37.80
6627;DHT22;3349;49.830;8.748;2022-07-18T07:25:11;21.70;36.90
6627;DHT22;3349;49.830;8.748;2022-07-18T07:27:38;21.80;37.90
6627;DHT22;3349;49.830;8.748;2022-07-18T07:30:06;21.90;38.20
6627;DHT22;3349;49.830;8.748;2022-07-18T07:32:34;22.10;38.40
6627;DHT22;3349;49.830;8.748;2022-07-18T07:35:02;22.20;39.60
6627;DHT22;3349;49.830;8.748;2022-07-18T07:37:29;22.40;38.20
6627;DHT22;3349;49.830;8.748;2022-07-18T07:39:57;22.50;37.50
6627;DHT22;3349;49.830;8.748;2022-07-18T07:42:24;22.80;36.40
6627;DHT22;3349;49.830;8.748;2022-07-18T07:44:50;22.90;36.50
6627;DHT22;3349;49.830;8.748;2022-07-18T07:47:17;23.10;35.10
6627;DHT22;3349;49.830;8.748;2022-07-18T07:49:44;23.40;34.30
6627;DHT22;3349;49.830;8.748;2022-07-18T07:52:10;23.60;33.00
6627;DHT22;3349;49.830;8.748;2022-07-18T07:54:39;23.70;34.50
6627;DHT22;3349;49.830;8.748;2022-07-18T07:57:07;24.00;33.40
6627;DHT22;3349;49.830;8.748;2022-07-18T07:59:34;24.20;33.30
6627;DHT22;3349;49.830;8.748;2022-07-18T08:02:01;24.50;31.60
6627;DHT22;3349;49.830;8.748;2022-07-18T08:04:27;24.80;31.60
6627;DHT22;3349;49.830;8.748;2022-07-18T08:06:54;25.20;32.10
6627;DHT22;3349;49.830;8.748;2022-07-18T08:09:21;26.00;31.20
6627;DHT22;3349;49.830;8.748;2022-07-18T08:11:48;27.00;29.60
6627;DHT22;3349;49.830;8.748;2022-07-18T08:14:16;28.30;27.80
6627;DHT22;3349;49.830;8.748;2022-07-18T08:16:43;29.60;25.80
6627;DHT22;3349;49.830;8.748;2022-07-18T08:19:09;30.50;25.00
6627;DHT22;3349;49.830;8.748;2022-07-18T08:21:36;31.40;23.80
6627;DHT22;3349;49.830;8.748;2022-07-18T08:24:03;32.50;22.20
6627;DHT22;3349;49.830;8.748;2022-07-18T08:26:30;33.10;21.40
6627;DHT22;3349;49.830;8.748;2022-07-18T08:28:59;34.20;20.40
6627;DHT22;3349;49.830;8.748;2022-07-18T08:31:27;34.90;18.80
6627;DHT22;3349;49.830;8.748;2022-07-18T08:33:54;35.20;18.60
6627;DHT22;3349;49.830;8.748;2022-07-18T08:36:21;35.60;17.50
6627;DHT22;3349;49.830;8.748;2022-07-18T08:38:48;36.40;17.50
6627;DHT22;3349;49.830;8.748;2022-07-18T08:41:16;36.60;16.80
6627;DHT22;3349;49.830;8.748;2022-07-18T08:43:44;36.70;16.30
6627;DHT22;3349;49.830;8.748;2022-07-18T08:46:12;37.20;15.90
6627;DHT22;3349;49.830;8.748;2022-07-18T08:48:41;37.20;15.20
6627;DHT22;3349;49.830;8.748;2022-07-18T08:51:08;37.50;15.40
6627;DHT22;3349;49.830;8.748;2022-07-18T08:53:35;38.00;15.60
6627;DHT22;3349;49.830;8.748;2022-07-18T08:56:03;38.80;14.80
6627;DHT22;3349;49.830;8.748;2022-07-18T08:58:30;39.10;14.60
6627;DHT22;3349;49.830;8.748;2022-07-18T09:00:57;38.50;13.70
6627;DHT22;3349;49.830;8.748;2022-07-18T09:03:24;38.80;14.40
6627;DHT22;3349;49.830;8.748;2022-07-18T09:06:04;39.00;14.20
6627;DHT22;3349;49.830;8.748;2022-07-18T09:08:31;38.70;13.80
6627;DHT22;3349;49.830;8.748;2022-07-18T09:11:00;39.50;13.50
6627;DHT22;3349;49.830;8.748;2022-07-18T09:13:36;39.20;12.40
6627;DHT22;3349;49.830;8.748;2022-07-18T09:16:05;39.50;12.30
6627;DHT22;3349;49.830;8.748;2022-07-18T09:18:33;39.80;12.40
6627;DHT22;3349;49.830;8.748;2022-07-18T09:21:01;40.50;11.60
6627;DHT22;3349;49.830;8.748;2022-07-18T09:23:31;39.90;11.80
6627;DHT22;3349;49.830;8.748;2022-07-18T09:25:58;41.20;11.90
6627;DHT22;3349;49.830;8.748;2022-07-18T09:28:26;41.60;10.70
6627;DHT22;3349;49.830;8.748;2022-07-18T09:30:53;40.90;10.80
6627;DHT22;3349;49.830;8.748;2022-07-18T09:33:20;42.10;9.90
6627;DHT22;3349;49.830;8.748;2022-07-18T09:35:49;42.30;9.40
6627;DHT22;3349;49.830;8.748;2022-07-18T09:38:18;42.80;9.10
6627;DHT22;3349;49.830;8.748;2022-07-18T09:40:48;41.20;9.50
6627;DHT22;3349;49.830;8.748;2022-07-18T09:43:17;40.40;9.90
6627;DHT22;3349;49.830;8.748;2022-07-18T09:45:46;40.90;10.10
6627;DHT22;3349;49.830;8.748;2022-07-18T09:48:15;40.40;10.00
6627;DHT22;3349;49.830;8.748;2022-07-18T09:50:50;40.60;10.20
6627;DHT22;3349;49.830;8.748;2022-07-18T09:53:18;42.10;9.90
6627;DHT22;3349;49.830;8.748;2022-07-18T09:55:51;43.20;9.30
6627;DHT22;3349;49.830;8.748;2022-07-18T09:58:20;43.30;9.20
6627;DHT22;3349;49.830;8.748;2022-07-18T10:00:49;42.70;9.40
6627;DHT22;3349;49.830;8.748;2022-07-18T10:03:17;43.10;9.10
6627;DHT22;3349;49.830;8.748;2022-07-18T10:05:45;42.80;9.60
6627;DHT22;3349;49.830;8.748;2022-07-18T10:08:15;43.20;8.90
6627;DHT22;3349;49.830;8.748;2022-07-18T10:10:43;42.60;9.20
6627;DHT22;3349;49.830;8.748;2022-07-18T10:13:12;42.00;9.60
6627;DHT22;3349;49.830;8.748;2022-07-18T10:15:42;43.30;9.50
6627;DHT22;3349;49.830;8.748;2022-07-18T10:18:11;43.70;8.70
6627;DHT22;3349;49.830;8.748;2022-07-18T10:20:40;44.00;9.20
6627;DHT22;3349;49.830;8.748;2022-07-18T10:23:11;43.70;9.00
6627;DHT22;3349;49.830;8.748;2022-07-18T10:25:39;45.00;8.80
6627;DHT22;3349;49.830;8.748;2022-07-18T10:28:08;44.40;8.50
6627;DHT22;3349;49.830;8.748;2022-07-18T10:30:44;44.30;8.60
6627;DHT22;3349;49.830;8.748;2022-07-18T10:33:37;43.20;8.50
6627;DHT22;3349;49.830;8.748;2022-07-18T10:36:07;44.00;8.90
6627;DHT22;3349;49.830;8.748;2022-07-18T10:38:35;45.80;8.10
6627;DHT22;3349;49.830;8.748;2022-07-18T10:41:04;46.30;8.00
6627;DHT22;3349;49.830;8.748;2022-07-18T10:43:32;45.30;7.50
6627;DHT22;3349;49.830;8.748;2022-07-18T10:46:02;43.30;8.20
6627;DHT22;3349;49.830;8.748;2022-07-18T10:48:53;42.30;8.80
6627;DHT22;3349;49.830;8.748;2022-07-18T10:51:29;41.80;9.40
6627;DHT22;3349;49.830;8.748;2022-07-18T10:53:57;42.80;9.60
6627;DHT22;3349;49.830;8.748;2022-07-18T10:59:24;45.10;7.90
6627;DHT22;3349;49.830;8.748;2022-07-18T11:01:54;45.90;7.80
6627;DHT22;3349;49.830;8.748;2022-07-18T11:04:26;44.30;7.60
6627;DHT22;3349;49.830;8.748;2022-07-18T11:06:53;43.70;8.80
6627;DHT22;3349;49.830;8.748;2022-07-18T11:09:37;44.40;8.60
6627;DHT22;3349;49.830;8.748;2022-07-18T11:12:20;44.40;8.60
6627;DHT22;3349;49.830;8.748;2022-07-18T11:15:06;44.50;8.00
6627;DHT22;3349;49.830;8.748;2022-07-18T11:18:02;44.40;8.40
6627;DHT22;3349;49.830;8.748;2022-07-18T11:20:36;43.30;8.00
6627;DHT22;3349;49.830;8.748;2022-07-18T11:23:04;44.00;8.60
6627;DHT22;3349;49.830;8.748;2022-07-18T11:25:31;44.30;8.60
6627;DHT22;3349;49.830;8.748;2022-07-18T11:27:58;45.10;8.10
6627;DHT22;3349;49.830;8.748;2022-07-18T11:30:25;44.60;8.20
6627;DHT22;3349;49.830;8.748;2022-07-18T11:32:52;43.60;7.90
6627;DHT22;3349;49.830;8.748;2022-07-18T11:35:24;42.50;8.70
6627;DHT22;3349;49.830;8.748;2022-07-18T11:37:52;44.00;8.90
6627;DHT22;3349;49.830;8.748;2022-07-18T11:40:19;44.20;8.20
6627;DHT22;3349;49.830;8.748;2022-07-18T11:42:47;45.20;7.60
6627;DHT22;3349;49.830;8.748;2022-07-18T11:45:16;45.00;7.90
6627;DHT22;3349;49.830;8.748;2022-07-18T11:47:48;44.20;8.20
6627;DHT22;3349;49.830;8.748;2022-07-18T11:50:15;43.70;8.10
6627;DHT22;3349;49.830;8.748;2022-07-18T11:52:45;43.70;8.00
6627;DHT22;3349;49.830;8.748;2022-07-18T11:55:13;42.50;8.60
6627;DHT22;3349;49.830;8.748;2022-07-18T11:57:40;43.30;8.50
6627;DHT22;3349;49.830;8.748;2022-07-18T12:00:15;43.60;8.20
6627;DHT22;3349;49.830;8.748;2022-07-18T12:03:05;43.70;8.10
6627;DHT22;3349;49.830;8.748;2022-07-18T12:05:33;43.20;8.40
6627;DHT22;3349;49.830;8.748;2022-07-18T12:10:43;42.60;8.30
6627;DHT22;3349;49.830;8.748;2022-07-18T12:13:10;43.60;8.60
6627;DHT22;3349;49.830;8.748;2022-07-18T12:15:40;43.30;8.60
6627;DHT22;3349;49.830;8.748;2022-07-18T12:18:06;44.00;8.40
6627;DHT22;3349;49.830;8.748;2022-07-18T12:20:33;43.80;8.00
6627;DHT22;3349;49.830;8.748;2022-07-18T12:23:06;44.70;8.20
6627;DHT22;3349;49.830;8.748;2022-07-18T12:25:36;45.40;7.60
6627;DHT22;3349;49.830;8.748;2022-07-18T12:28:12;43.90;7.40
6627;DHT22;3349;49.830;8.748;2022-07-18T12:30:40;44.60;8.00
6627;DHT22;3349;49.830;8.748;2022-07-18T12:33:08;44.50;7.50
6627;DHT22;3349;49.830;8.748;2022-07-18T12:35:38;44.30;8.00
6627;DHT22;3349;49.830;8.748;2022-07-18T12:38:08;45.10;7.80
6627;DHT22;3349;49.830;8.748;2022-07-18T12:40:42;45.30;7.70
6627;DHT22;3349;49.830;8.748;2022-07-18T12:43:11;45.20;7.50
6627;DHT22;3349;49.830;8.748;2022-07-18T12:45:38;45.30;7.80
6627;DHT22;3349;49.830;8.748;2022-07-18T12:48:07;45.50;7.50
6627;DHT22;3349;49.830;8.748;2022-07-18T12:50:34;45.30;7.50
6627;DHT22;3349;49.830;8.748;2022-07-18T12:53:02;45.60;7.70
6627;DHT22;3349;49.830;8.748;2022-07-18T12:55:31;45.60;7.70
6627;DHT22;3349;49.830;8.748;2022-07-18T12:57:58;45.50;7.20
6627;DHT22;3349;49.830;8.748;2022-07-18T13:00:26;44.70;7.60
6627;DHT22;3349;49.830;8.748;2022-07-18T13:02:52;43.80;7.80
6627;DHT22;3349;49.830;8.748;2022-07-18T13:05:21;43.00;7.80
6627;DHT22;3349;49.830;8.748;2022-07-18T13:07:48;42.50;8.70
6627;DHT22;3349;49.830;8.748;2022-07-18T13:10:14;42.50;8.50
6627;DHT22;3349;49.830;8.748;2022-07-18T13:12:42;41.90;8.80
6627;DHT22;3349;49.830;8.748;2022-07-18T13:15:10;42.10;8.90
6627;DHT22;3349;49.830;8.748;2022-07-18T13:17:37;42.20;8.60
6627;DHT22;3349;49.830;8.748;2022-07-18T13:20:05;42.40;9.20
6627;DHT22;3349;49.830;8.748;2022-07-18T13:22:32;42.30;9.00
6627;DHT22;3349;49.830;8.748;2022-07-18T13:25:04;42.10;9.00
6627;DHT22;3349;49.830;8.748;2022-07-18T13:27:31;41.40;9.20
6627;DHT22;3349;49.830;8.748;2022-07-18T13:29:59;41.90;9.40
6627;DHT22;3349;49.830;8.748;2022-07-18T13:32:27;40.90;9.30
6627;DHT22;3349;49.830;8.748;2022-07-18T13:34:54;39.60;10.10
6627;DHT22;3349;49.830;8.748;2022-07-18T13:37:21;38.90;11.40
6627;DHT22;3349;49.830;8.748;2022-07-18T13:39:48;38.30;11.40
6627;DHT22;3349;49.830;8.748;2022-07-18T13:42:14;37.80;11.60
6627;DHT22;3349;49.830;8.748;2022-07-18T13:44:41;37.30;11.40
6627;DHT22;3349;49.830;8.748;2022-07-18T13:47:11;36.80;12.20
6627;DHT22;3349;49.830;8.748;2022-07-18T13:49:38;36.50;12.60
6627;DHT22;3349;49.830;8.748;2022-07-18T13:52:05;36.10;12.50
6627;DHT22;3349;49.830;8.748;2022-07-18T13:54:32;35.80;13.00
6627;DHT22;3349;49.830;8.748;2022-07-18T13:56:59;35.60;13.00
6627;DHT22;3349;49.830;8.748;2022-07-18T13:59:26;35.00;13.20
6627;DHT22;3349;49.830;8.748;2022-07-18T14:01:53;34.70;13.90
6627;DHT22;3349;49.830;8.748;2022-07-18T14:04:22;34.80;14.70
6627;DHT22;3349;49.830;8.748;2022-07-18T14:06:49;35.00;14.60
6627;DHT22;3349;49.830;8.748;2022-07-18T14:09:16;34.60;14.10
6627;DHT22;3349;49.830;8.748;2022-07-18T14:11:43;34.80;14.00
6627;DHT22;3349;49.830;8.748;2022-07-18T14:14:10;34.90;14.10
6627;DHT22;3349;49.830;8.748;2022-07-18T14:16:36;35.40;14.00
6627;DHT22;3349;49.830;8.748;2022-07-18T14:19:04;35.80;13.80
6627;DHT22;3349;49.830;8.748;2022-07-18T14:21:32;36.10;13.50
6627;DHT22;3349;49.830;8.748;2022-07-18T14:23:59;36.20;13.20
6627;DHT22;3349;49.830;8.748;2022-07-18T14:26:26;36.30;13.20
6627;DHT22;3349;49.830;8.748;2022-07-18T14:28:53;36.30;13.10
6627;DHT22;3349;49.830;8.748;2022-07-18T14:31:20;36.40;13.00
6627;DHT22;3349;49.830;8.748;2022-07-18T14:33:46;37.00;13.00
6627;DHT22;3349;49.830;8.748;2022-07-18T14:36:14;38.20;12.70
6627;DHT22;3349;49.830;8.748;2022-07-18T14:38:43;38.30;12.30
6627;DHT22;3349;49.830;8.748;2022-07-18T14:41:10;38.80;12.20
6627;DHT22;3349;49.830;8.748;2022-07-18T14:43:37;38.30;11.90
6627;DHT22;3349;49.830;8.748;2022-07-18T14:46:04;38.60;12.10
6627;DHT22;3349;49.830;8.748;2022-07-18T14:48:31;38.70;12.10
6627;DHT22;3349;49.830;8.748;2022-07-18T14:50:58;38.40;12.00
6627;DHT22;3349;49.830;8.748;2022-07-18T14:53:24;38.90;12.80
6627;DHT22;3349;49.830;8.748;2022-07-18T14:55:53;38.60;12.10
6627;DHT22;3349;49.830;8.748;2022-07-18T14:58:19;38.60;12.10
6627;DHT22;3349;49.830;8.748;2022-07-18T15:00:46;38.40;12.00
6627;DHT22;3349;49.830;8.748;2022-07-18T15:03:13;38.50;12.60
6627;DHT22;3349;49.830;8.748;2022-07-18T15:05:40;38.30;11.90
6627;DHT22;3349;49.830;8.748;2022-07-18T15:08:07;37.60;11.60
6627;DHT22;3349;49.830;8.748;2022-07-18T15:10:34;37.10;12.30
6627;DHT22;3349;49.830;8.748;2022-07-18T15:13:02;36.80;12.40
6627;DHT22;3349;49.830;8.748;2022-07-18T15:15:29;36.50;12.50
6627;DHT22;3349;49.830;8.748;2022-07-18T15:17:56;36.40;13.60
6627;DHT22;3349;49.830;8.748;2022-07-18T15:20:23;36.20;13.50
6627;DHT22;3349;49.830;8.748;2022-07-18T15:22:50;36.00;13.60
6627;DHT22;3349;49.830;8.748;2022-07-18T15:25:17;36.00;13.90
6627;DHT22;3349;49.830;8.748;2022-07-18T15:27:44;36.30;13.90
6627;DHT22;3349;49.830;8.748;2022-07-18T15:30:12;36.20;13.40
6627;DHT22;3349;49.830;8.748;2022-07-18T15:32:40;35.90;13.00
6627;DHT22;3349;49.830;8.748;2022-07-18T15:35:07;35.90;14.20
6627;DHT22;3349;49.830;8.748;2022-07-18T15:37:34;35.80;13.70
6627;DHT22;3349;49.830;8.748;2022-07-18T15:40:00;35.50;13.60
6627;DHT22;3349;49.830;8.748;2022-07-18T15:42:27;35.60;13.90
6627;DHT22;3349;49.830;8.748;2022-07-18T15:44:54;35.50;13.90
6627;DHT22;3349;49.830;8.748;2022-07-18T15:47:22;35.60;13.90
6627;DHT22;3349;49.830;8.748;2022-07-18T15:49:49;35.70;13.90
6627;DHT22;3349;49.830;8.748;2022-07-18T15:52:15;35.70;13.80
6627;DHT22;3349;49.830;8.748;2022-07-18T15:54:42;35.50;13.80
6627;DHT22;3349;49.830;8.748;2022-07-18T15:57:09;35.60;13.80
6627;DHT22;3349;49.830;8.748;2022-07-18T15:59:35;35.70;14.50
6627;DHT22;3349;49.830;8.748;2022-07-18T16:02:02;35.60;14.10
6627;DHT22;3349;49.830;8.748;2022-07-18T16:04:32;35.60;13.80
6627;DHT22;3349;49.830;8.748;2022-07-18T16:06:59;35.80;13.90
6627;DHT22;3349;49.830;8.748;2022-07-18T16:09:25;35.80;14.50
6627;DHT22;3349;49.830;8.748;2022-07-18T16:11:52;35.80;13.90
6627;DHT22;3349;49.830;8.748;2022-07-18T16:14:19;35.80;13.80